Time;durP1;ratioP1;P1;durP2;ratioP2;P2;SDS_P1;SDS_P2;PMS_P1;PMS_P2;Temp;Humidity;BMP_temperature;BMP_pressure;BME280_temperature;BME280_humidity;BME280_pressure;Samples;Min_cycle;Max_cycle;Signal;HPM_P1;HPM_P2
2023/12/10 00:02:21;;;;;;;13.70;3.83;;;;;;;;;;5063208;28;42218;-79
2023/12/10 00:04:49;;;;;;;15.45;4.10;;;;;;;;;;5064297;28;42551;-80
2023/12/10 00:07:18;;;;;;;16.80;4.80;;;;;;;;;;5063863;28;41729;-77
2023/12/10 00:09:46;;;;;;;10.98;3.90;;;;;;;;;;5062712;28;40284;-80
2023/12/10 00:12:14;;;;;;;14.60;3.83;;;;;;;;;;5043938;28;41836;-79
2023/12/10 00:14:42;;;;;;;10.13;3.40;;;;;;;;;;5062915;28;42386;-82
2023/12/10 00:17:10;;;;;;;15.38;4.00;;;;;;;;;;5063153;28;40483;-76
2023/12/10 00:19:39;;;;;;;20.25;4.75;;;;;;;;;;5060957;28;42659;-79
2023/12/10 00:22:07;;;;;;;17.88;4.65;;;;;;;;;;5063855;28;42003;-74
2023/12/10 00:24:36;;;;;;;9.35;3.05;;;;;;;;;;5065618;28;41053;-75
2023/12/10 00:27:04;;;;;;;10.02;2.85;;;;;;;;;;5064988;28;42071;-75
2023/12/10 00:29:32;;;;;;;15.27;4.03;;;;;;;;;;5074016;28;41059;-75
2023/12/10 00:32:00;;;;;;;16.52;4.05;;;;;;;;;;5053824;28;41082;-75
2023/12/10 00:34:28;;;;;;;17.85;3.97;;;;;;;;;;5086323;28;41723;-75
2023/12/10 00:36:57;;;;;;;15.32;4.00;;;;;;;;;;5068703;28;40416;-75
2023/12/10 00:39:25;;;;;;;16.88;4.35;;;;;;;;;;5064826;28;42203;-75
2023/12/10 00:41:54;;;;;;;20.90;4.70;;;;;;;;;;5064626;28;41635;-75
2023/12/10 00:44:22;;;;;;;11.70;3.20;;;;;;;;;;5061026;28;41286;-74
2023/12/10 00:46:50;;;;;;;13.85;3.90;;;;;;;;;;5066967;28;41174;-74
2023/12/10 00:49:18;;;;;;;13.98;4.10;;;;;;;;;;5064370;28;40519;-75
2023/12/10 00:51:46;;;;;;;14.10;3.78;;;;;;;;;;5057463;28;41034;-74
2023/12/10 00:54:16;;;;;;;14.68;3.42;;;;;;;;;;5056438;28;42092;-74
2023/12/10 00:56:44;;;;;;;16.95;4.32;;;;;;;;;;5065495;28;41518;-75
2023/12/10 00:59:12;;;;;;;17.25;3.78;;;;;;;;;;5065689;28;42245;-75
2023/12/10 01:01:41;;;;;;;19.65;4.63;;;;;;;;;;5063213;28;42236;-74
2023/12/10 01:04:09;;;;;;;20.10;5.32;;;;;;;;;;5064446;28;40131;-75
2023/12/10 01:06:37;;;;;;;18.42;3.30;;;;;;;;;;5044279;28;41245;-74
2023/12/10 01:09:05;;;;;;;19.73;4.65;;;;;;;;;;5066657;28;32911;-75
2023/12/10 01:11:35;;;;;;;14.45;3.90;;;;;;;;;;5041187;28;39901;-74
2023/12/10 01:14:03;;;;;;;13.93;4.00;;;;;;;;;;5065961;28;42015;-75
2023/12/10 01:16:31;;;;;;;18.17;4.45;;;;;;;;;;5066443;28;41390;-74
2023/12/10 01:18:59;;;;;;;14.75;3.88;;;;;;;;;;5059261;28;40948;-74
2023/12/10 01:21:27;;;;;;;14.85;3.78;;;;;;;;;;5061872;28;41792;-75
2023/12/10 01:23:56;;;;;;;11.38;3.15;;;;;;;;;;5044878;28;40055;-74
2023/12/10 01:26:24;;;;;;;13.80;3.70;;;;;;;;;;5064970;28;42398;-75
2023/12/10 01:28:53;;;;;;;20.35;4.28;;;;;;;;;;5069582;28;42852;-75
2023/12/10 01:31:21;;;;;;;21.02;4.82;;;;;;;;;;5069365;28;42381;-74
2023/12/10 01:33:49;;;;;;;12.85;3.30;;;;;;;;;;5069578;28;43202;-74
2023/12/10 01:36:23;;;;;;;19.77;4.25;;;;;;;;;;5059307;28;41122;-74
2023/12/10 01:38:52;;;;;;;17.90;4.88;;;;;;;;;;5069633;28;43159;-74
2023/12/10 01:41:20;;;;;;;13.65;4.18;;;;;;;;;;5062312;28;41763;-75
2023/12/10 01:43:49;;;;;;;11.23;4.03;;;;;;;;;;5059911;28;39246;-74
2023/12/10 01:46:18;;;;;;;14.20;3.60;;;;;;;;;;5069907;28;42180;-74
2023/12/10 01:48:46;;;;;;;12.85;3.85;;;;;;;;;;5069545;28;41602;-74
2023/12/10 01:51:14;;;;;;;14.45;4.10;;;;;;;;;;5076228;28;41069;-75
2023/12/10 01:53:42;;;;;;;9.35;2.78;;;;;;;;;;5076595;28;41576;-74
2023/12/10 01:56:11;;;;;;;16.10;4.63;;;;;;;;;;5074267;28;40790;-74
2023/12/10 01:58:40;;;;;;;12.68;3.22;;;;;;;;;;5058819;28;40843;-75
2023/12/10 02:01:08;;;;;;;17.10;4.18;;;;;;;;;;5068743;28;42874;-75
2023/12/10 02:03:38;;;;;;;15.43;3.45;;;;;;;;;;5048904;28;39028;-75
2023/12/10 02:06:06;;;;;;;13.43;4.05;;;;;;;;;;5066223;28;42229;-75
2023/12/10 02:08:34;;;;;;;15.00;4.22;;;;;;;;;;5069845;28;43022;-74
2023/12/10 02:11:03;;;;;;;13.27;4.13;;;;;;;;;;5067493;28;40247;-74
2023/12/10 02:13:31;;;;;;;15.48;4.13;;;;;;;;;;5070252;28;41473;-75
2023/12/10 02:15:59;;;;;;;14.88;3.95;;;;;;;;;;5069015;28;41370;-75
2023/12/10 02:18:27;;;;;;;20.23;4.38;;;;;;;;;;5064765;28;41783;-74
2023/12/10 02:20:56;;;;;;;19.15;4.32;;;;;;;;;;5050385;28;41323;-74
2023/12/10 02:23:33;;;;;;;9.77;3.22;;;;;;;;;;5069528;28;41325;-75
2023/12/10 02:26:02;;;;;;;16.65;3.83;;;;;;;;;;5065680;28;42559;-74
2023/12/10 02:28:30;;;;;;;15.30;3.47;;;;;;;;;;5069387;28;42118;-74
2023/12/10 02:30:58;;;;;;;19.48;5.20;;;;;;;;;;5077319;28;40557;-74
2023/12/10 02:33:26;;;;;;;14.23;3.38;;;;;;;;;;5074629;28;41597;-74
2023/12/10 02:35:55;;;;;;;14.63;4.10;;;;;;;;;;5069227;28;42197;-74
2023/12/10 02:38:23;;;;;;;14.35;3.88;;;;;;;;;;5066868;28;41566;-74
2023/12/10 02:40:51;;;;;;;14.27;3.85;;;;;;;;;;5058112;28;41723;-74
2023/12/10 02:43:20;;;;;;;12.73;4.18;;;;;;;;;;5068878;28;42045;-74
2023/12/10 02:45:48;;;;;;;11.45;2.88;;;;;;;;;;5055844;28;41500;-74
2023/12/10 02:48:21;;;;;;;15.95;3.70;;;;;;;;;;5067649;28;42738;-74
2023/12/10 02:50:50;;;;;;;15.80;3.85;;;;;;;;;;5066020;28;40775;-74
2023/12/10 02:53:18;;;;;;;13.55;3.70;;;;;;;;;;5067600;28;42543;-74
2023/12/10 02:55:46;;;;;;;15.63;3.85;;;;;;;;;;5068926;28;42367;-75
2023/12/10 02:58:15;;;;;;;13.77;3.38;;;;;;;;;;5068531;28;41443;-74
2023/12/10 03:00:45;;;;;;;10.68;2.60;;;;;;;;;;5055227;28;43069;-75
2023/12/10 03:03:13;;;;;;;16.92;3.97;;;;;;;;;;5065878;28;40585;-74
2023/12/10 03:05:42;;;;;;;27.55;5.35;;;;;;;;;;5068622;28;41633;-75
2023/12/10 03:08:10;;;;;;;15.73;3.70;;;;;;;;;;5067463;28;43033;-74
2023/12/10 03:10:38;;;;;;;13.80;3.00;;;;;;;;;;5065812;28;39978;-74
2023/12/10 03:13:06;;;;;;;14.48;3.40;;;;;;;;;;5068940;28;42308;-74
2023/12/10 03:15:34;;;;;;;17.30;4.20;;;;;;;;;;5081925;28;42287;-75
2023/12/10 03:18:05;;;;;;;11.68;3.20;;;;;;;;;;5068522;28;40397;-75
2023/12/10 03:20:33;;;;;;;13.93;3.42;;;;;;;;;;5078121;28;43177;-75
2023/12/10 03:23:02;;;;;;;20.10;4.85;;;;;;;;;;5064597;28;41992;-74
2023/12/10 03:25:30;;;;;;;14.25;3.55;;;;;;;;;;5067569;28;42635;-75
2023/12/10 03:27:58;;;;;;;12.45;3.17;;;;;;;;;;5060309;28;42809;-74
2023/12/10 03:30:27;;;;;;;16.15;3.65;;;;;;;;;;5048367;28;41345;-75
2023/12/10 03:32:55;;;;;;;14.27;2.50;;;;;;;;;;5062018;28;41481;-74
2023/12/10 03:35:24;;;;;;;13.48;3.28;;;;;;;;;;5054599;28;41850;-75
2023/12/10 03:37:52;;;;;;;16.35;3.80;;;;;;;;;;5068232;28;42399;-75
2023/12/10 03:40:21;;;;;;;11.65;3.05;;;;;;;;;;5068526;28;42283;-75
2023/12/10 03:42:49;;;;;;;13.73;2.88;;;;;;;;;;5068235;28;40452;-75
2023/12/10 03:45:17;;;;;;;11.63;3.58;;;;;;;;;;5067348;28;41689;-75
2023/12/10 03:47:46;;;;;;;14.65;3.90;;;;;;;;;;5067563;28;43121;-75
2023/12/10 03:50:15;;;;;;;16.90;4.00;;;;;;;;;;5067285;28;41051;-75
2023/12/10 03:52:44;;;;;;;11.13;3.38;;;;;;;;;;5058188;28;41602;-75
2023/12/10 03:55:12;;;;;;;16.20;4.03;;;;;;;;;;5064549;28;43187;-75
2023/12/10 03:57:40;;;;;;;16.17;3.70;;;;;;;;;;5058408;28;40405;-75
2023/12/10 04:00:09;;;;;;;14.30;3.38;;;;;;;;;;5061478;28;41697;-75
2023/12/10 04:02:40;;;;;;;18.23;3.50;;;;;;;;;;5053033;28;43452;-75
2023/12/10 04:05:11;;;;;;;13.85;3.38;;;;;;;;;;5051953;28;40261;-75
2023/12/10 04:07:40;;;;;;;14.95;3.65;;;;;;;;;;5064717;28;41784;-75
2023/12/10 04:10:10;;;;;;;15.80;3.90;;;;;;;;;;5067830;28;40003;-75
2023/12/10 04:12:38;;;;;;;12.93;3.22;;;;;;;;;;5067920;28;41507;-75
2023/12/10 04:15:07;;;;;;;16.45;3.75;;;;;;;;;;5067750;28;43081;-75
2023/12/10 04:17:35;;;;;;;14.52;4.45;;;;;;;;;;5048712;28;40769;-75
2023/12/10 04:20:03;;;;;;;12.32;3.42;;;;;;;;;;5048020;28;42347;-75
2023/12/10 04:22:31;;;;;;;16.77;3.80;;;;;;;;;;5064415;28;43049;-75
2023/12/10 04:24:59;;;;;;;12.82;3.42;;;;;;;;;;5056319;28;40943;-75
2023/12/10 04:27:29;;;;;;;8.93;3.25;;;;;;;;;;5067641;28;41994;-75
2023/12/10 04:29:57;;;;;;;14.15;3.85;;;;;;;;;;5067885;28;40001;-75
2023/12/10 04:32:25;;;;;;;14.90;3.65;;;;;;;;;;5066973;28;41085;-75
2023/12/10 04:34:53;;;;;;;11.10;3.10;;;;;;;;;;5068043;28;41702;-75
2023/12/10 04:37:21;;;;;;;20.42;4.45;;;;;;;;;;5067241;28;41085;-75
2023/12/10 04:39:49;;;;;;;20.45;4.45;;;;;;;;;;5066679;28;42488;-75
2023/12/10 04:42:17;;;;;;;19.52;4.45;;;;;;;;;;5078649;28;42091;-75
2023/12/10 04:44:47;;;;;;;16.38;4.25;;;;;;;;;;5053908;28;40173;-75
2023/12/10 04:47:15;;;;;;;13.90;3.33;;;;;;;;;;5048758;28;40676;-74
2023/12/10 04:49:43;;;;;;;11.07;2.90;;;;;;;;;;5066850;28;40425;-75
2023/12/10 04:52:11;;;;;;;15.82;4.25;;;;;;;;;;5067145;28;41840;-74
2023/12/10 04:54:39;;;;;;;18.33;4.15;;;;;;;;;;5066484;28;42247;-75
2023/12/10 04:57:07;;;;;;;16.90;4.05;;;;;;;;;;5067482;28;41653;-75
2023/12/10 04:59:35;;;;;;;16.63;4.25;;;;;;;;;;5069015;28;42534;-75
2023/12/10 05:02:05;;;;;;;14.45;3.92;;;;;;;;;;5071155;28;42200;-75
2023/12/10 05:04:33;;;;;;;15.85;3.97;;;;;;;;;;5069593;28;41068;-74
2023/12/10 05:07:01;;;;;;;14.45;3.10;;;;;;;;;;5069861;28;41571;-74
2023/12/10 05:09:29;;;;;;;16.52;4.35;;;;;;;;;;5071037;28;41870;-75
2023/12/10 05:11:57;;;;;;;14.88;3.95;;;;;;;;;;5070590;28;41640;-75
2023/12/10 05:14:25;;;;;;;12.05;3.75;;;;;;;;;;5055828;28;43155;-75
2023/12/10 05:16:53;;;;;;;18.88;4.03;;;;;;;;;;5070410;28;41429;-75
2023/12/10 05:19:23;;;;;;;15.43;3.25;;;;;;;;;;5070595;28;42670;-75
2023/12/10 05:21:52;;;;;;;16.02;4.10;;;;;;;;;;5069611;28;41331;-75
2023/12/10 05:24:20;;;;;;;15.43;3.75;;;;;;;;;;5070592;28;40173;-75
2023/12/10 05:26:49;;;;;;;12.32;3.70;;;;;;;;;;5069804;28;41737;-75
2023/12/10 05:29:17;;;;;;;18.35;3.80;;;;;;;;;;5069554;28;41704;-75
2023/12/10 05:31:45;;;;;;;16.17;3.83;;;;;;;;;;5070294;28;41507;-75
2023/12/10 05:34:13;;;;;;;14.13;3.72;;;;;;;;;;5070038;28;42555;-75
2023/12/10 05:36:42;;;;;;;14.80;3.47;;;;;;;;;;5069318;28;41305;-75
2023/12/10 05:39:11;;;;;;;18.30;4.00;;;;;;;;;;5068376;28;42433;-75
2023/12/10 05:41:39;;;;;;;14.82;4.03;;;;;;;;;;5068508;28;41649;-75
2023/12/10 05:44:07;;;;;;;13.45;3.30;;;;;;;;;;5066914;28;40739;-75
2023/12/10 05:46:35;;;;;;;13.43;3.33;;;;;;;;;;5063248;28;41185;-74
2023/12/10 05:49:04;;;;;;;15.63;4.38;;;;;;;;;;5056735;28;42131;-74
2023/12/10 05:51:32;;;;;;;20.67;4.60;;;;;;;;;;5063609;28;41416;-74
2023/12/10 05:54:00;;;;;;;17.77;4.20;;;;;;;;;;5070454;28;42189;-75
2023/12/10 05:56:28;;;;;;;19.67;4.50;;;;;;;;;;5069604;28;41353;-75
2023/12/10 05:58:56;;;;;;;17.80;3.92;;;;;;;;;;5070127;28;41672;-75
2023/12/10 06:01:24;;;;;;;23.30;4.65;;;;;;;;;;5070680;28;41938;-75
2023/12/10 06:03:53;;;;;;;18.52;4.43;;;;;;;;;;5066950;28;40423;-75
2023/12/10 06:06:21;;;;;;;15.00;3.40;;;;;;;;;;5066573;28;41632;-74
2023/12/10 06:08:49;;;;;;;17.13;3.90;;;;;;;;;;5069880;28;41757;-74
2023/12/10 06:11:18;;;;;;;16.13;3.75;;;;;;;;;;5068013;28;41400;-75
2023/12/10 06:13:46;;;;;;;19.83;4.55;;;;;;;;;;5055331;28;41888;-75
2023/12/10 06:16:15;;;;;;;15.30;4.53;;;;;;;;;;5069538;28;40675;-74
2023/12/10 06:18:43;;;;;;;12.85;3.17;;;;;;;;;;5055130;28;42198;-74
2023/12/10 06:21:11;;;;;;;14.05;3.55;;;;;;;;;;5069371;28;43294;-74
2023/12/10 06:23:39;;;;;;;17.80;4.03;;;;;;;;;;5057269;28;41254;-74
2023/12/10 06:26:07;;;;;;;13.13;3.22;;;;;;;;;;5067381;28;41326;-75
2023/12/10 06:28:36;;;;;;;16.70;4.03;;;;;;;;;;5069011;28;42165;-74
2023/12/10 06:31:05;;;;;;;15.50;3.72;;;;;;;;;;5068263;28;40847;-74
2023/12/10 06:33:33;;;;;;;17.63;4.28;;;;;;;;;;5069637;28;41461;-74
2023/12/10 06:36:01;;;;;;;10.70;3.13;;;;;;;;;;5069399;28;41735;-74
2023/12/10 06:38:29;;;;;;;17.83;4.03;;;;;;;;;;5069235;28;41321;-74
2023/12/10 06:40:57;;;;;;;14.45;3.75;;;;;;;;;;5047260;28;42281;-74
2023/12/10 06:43:26;;;;;;;17.98;3.83;;;;;;;;;;5069412;28;40350;-74
2023/12/10 06:45:56;;;;;;;18.40;4.25;;;;;;;;;;5068288;28;41409;-74
2023/12/10 06:48:24;;;;;;;20.55;4.72;;;;;;;;;;5068880;28;42241;-74
2023/12/10 06:50:52;;;;;;;17.95;3.58;;;;;;;;;;5068642;28;41224;-74
2023/12/10 06:53:21;;;;;;;17.00;4.40;;;;;;;;;;5066585;28;42055;-75
2023/12/10 06:55:49;;;;;;;21.33;4.55;;;;;;;;;;5068527;28;42117;-74
2023/12/10 06:58:17;;;;;;;17.85;3.75;;;;;;;;;;5064909;28;40936;-74
2023/12/10 07:00:46;;;;;;;12.25;3.47;;;;;;;;;;5049738;28;43149;-74
2023/12/10 07:03:15;;;;;;;16.83;3.80;;;;;;;;;;5053864;28;40516;-75
2023/12/10 07:05:43;;;;;;;12.57;4.00;;;;;;;;;;5067742;28;41180;-74
2023/12/10 07:08:11;;;;;;;14.68;3.83;;;;;;;;;;5055166;28;41776;-75
2023/12/10 07:10:41;;;;;;;11.88;3.28;;;;;;;;;;5068083;28;41391;-75
2023/12/10 07:13:10;;;;;;;15.50;4.38;;;;;;;;;;5068459;28;42406;-74
2023/12/10 07:15:38;;;;;;;9.93;2.92;;;;;;;;;;5068717;28;41839;-74
2023/12/10 07:18:06;;;;;;;20.33;4.22;;;;;;;;;;5068264;28;40010;-74
2023/12/10 07:20:36;;;;;;;13.38;3.58;;;;;;;;;;5068611;28;42084;-75
2023/12/10 07:23:04;;;;;;;12.82;3.05;;;;;;;;;;5067198;28;41299;-74
2023/12/10 07:25:32;;;;;;;12.40;3.28;;;;;;;;;;5069288;28;42676;-75
2023/12/10 07:28:00;;;;;;;14.18;4.18;;;;;;;;;;5067203;28;41708;-74
2023/12/10 07:30:29;;;;;;;17.15;3.92;;;;;;;;;;5068438;28;41102;-74
2023/12/10 07:32:57;;;;;;;9.93;2.92;;;;;;;;;;5068172;28;41694;-75
2023/12/10 07:35:25;;;;;;;12.05;3.63;;;;;;;;;;5067337;28;42646;-75
2023/12/10 07:37:55;;;;;;;12.43;3.25;;;;;;;;;;5068300;28;40906;-74
2023/12/10 07:40:23;;;;;;;15.02;3.40;;;;;;;;;;5068619;28;42152;-74
2023/12/10 07:42:51;;;;;;;14.85;3.90;;;;;;;;;;5067232;28;41457;-74
2023/12/10 07:45:19;;;;;;;15.20;3.95;;;;;;;;;;5068091;28;41714;-74
2023/12/10 07:47:47;;;;;;;16.92;3.97;;;;;;;;;;5057684;28;41987;-74
2023/12/10 07:50:15;;;;;;;21.05;4.57;;;;;;;;;;5038324;28;40618;-74
2023/12/10 07:52:44;;;;;;;12.73;3.42;;;;;;;;;;5066327;28;41676;-74
2023/12/10 07:55:13;;;;;;;13.15;3.38;;;;;;;;;;5055930;28;42428;-74
2023/12/10 07:57:41;;;;;;;15.60;3.35;;;;;;;;;;5067655;28;40909;-74
2023/12/10 08:00:10;;;;;;;11.68;2.83;;;;;;;;;;5067725;28;42509;-74
2023/12/10 08:02:41;;;;;;;13.05;3.05;;;;;;;;;;5064565;28;42001;-74
2023/12/10 08:05:09;;;;;;;11.27;3.47;;;;;;;;;;5066872;28;41594;-74
2023/12/10 08:07:37;;;;;;;19.60;3.58;;;;;;;;;;5067910;28;42009;-74
2023/12/10 08:10:06;;;;;;;19.17;4.32;;;;;;;;;;5048203;28;40562;-74
2023/12/10 08:12:35;;;;;;;18.23;3.72;;;;;;;;;;5044991;28;40800;-74
2023/12/10 08:15:04;;;;;;;13.20;3.58;;;;;;;;;;5058784;28;41689;-74
2023/12/10 08:17:33;;;;;;;16.30;4.07;;;;;;;;;;5067176;28;40908;-74
2023/12/10 08:20:01;;;;;;;15.45;3.95;;;;;;;;;;5057312;28;41151;-74
2023/12/10 08:22:29;;;;;;;16.23;3.25;;;;;;;;;;5061910;28;42673;-74
2023/12/10 08:24:57;;;;;;;16.58;4.15;;;;;;;;;;5055898;28;41445;-75
2023/12/10 08:27:25;;;;;;;14.98;3.20;;;;;;;;;;5045951;28;41455;-74
2023/12/10 08:29:55;;;;;;;16.40;4.00;;;;;;;;;;5059244;28;40306;-74
2023/12/10 08:32:23;;;;;;;14.80;3.95;;;;;;;;;;5064963;28;42266;-75
2023/12/10 08:34:51;;;;;;;16.65;3.72;;;;;;;;;;5068193;28;41748;-74
2023/12/10 08:37:19;;;;;;;14.75;3.05;;;;;;;;;;5069729;28;40446;-74
2023/12/10 08:39:48;;;;;;;15.45;3.67;;;;;;;;;;5068319;28;41639;-74
2023/12/10 08:42:16;;;;;;;17.02;3.40;;;;;;;;;;5069636;28;42643;-74
2023/12/10 08:44:44;;;;;;;10.30;2.53;;;;;;;;;;5061821;28;40045;-74
2023/12/10 08:47:14;;;;;;;14.73;3.22;;;;;;;;;;5067266;28;41224;-74
2023/12/10 08:49:42;;;;;;;11.80;3.42;;;;;;;;;;5060373;28;40602;-74
2023/12/10 08:52:10;;;;;;;15.07;3.10;;;;;;;;;;5069364;28;42367;-74
2023/12/10 08:54:38;;;;;;;17.38;3.70;;;;;;;;;;5061585;28;41858;-74
2023/12/10 08:57:06;;;;;;;9.82;3.17;;;;;;;;;;5070129;28;40580;-75
2023/12/10 08:59:34;;;;;;;15.32;4.18;;;;;;;;;;5063870;28;41666;-78
2023/12/10 09:02:02;;;;;;;24.40;2.88;;;;;;;;;;5063728;28;41856;-78
2023/12/10 09:04:32;;;;;;;16.65;3.30;;;;;;;;;;5059784;28;40891;-77
2023/12/10 09:07:00;;;;;;;12.25;2.72;;;;;;;;;;5055886;28;41681;-77
2023/12/10 09:09:29;;;;;;;19.50;3.55;;;;;;;;;;5065106;28;41750;-78
2023/12/10 09:11:57;;;;;;;11.75;3.13;;;;;;;;;;5068510;28;42593;-77
2023/12/10 09:14:25;;;;;;;14.80;3.00;;;;;;;;;;5073822;28;41990;-78
2023/12/10 09:16:53;;;;;;;11.38;2.53;;;;;;;;;;5073090;28;40090;-76
2023/12/10 09:19:22;;;;;;;17.55;5.53;;;;;;;;;;5083661;28;42338;-76
2023/12/10 09:21:52;;;;;;;20.05;3.58;;;;;;;;;;5069097;28;42000;-76
2023/12/10 09:24:20;;;;;;;15.50;3.63;;;;;;;;;;5069272;28;41642;-78
2023/12/10 09:26:48;;;;;;;16.05;3.75;;;;;;;;;;5069157;28;41682;-79
2023/12/10 09:29:17;;;;;;;13.02;3.15;;;;;;;;;;5063560;28;41990;-77
2023/12/10 09:31:45;;;;;;;16.45;3.30;;;;;;;;;;5063429;28;40616;-76
2023/12/10 09:34:13;;;;;;;18.40;3.47;;;;;;;;;;5059333;28;42147;-74
2023/12/10 09:36:41;;;;;;;14.15;2.92;;;;;;;;;;5060115;28;41428;-74
2023/12/10 09:39:10;;;;;;;16.83;3.45;;;;;;;;;;5069885;28;41379;-74
2023/12/10 09:41:38;;;;;;;15.10;3.88;;;;;;;;;;5068273;28;42114;-74
2023/12/10 09:44:06;;;;;;;11.70;3.28;;;;;;;;;;5063087;28;40471;-74
2023/12/10 09:46:35;;;;;;;12.13;2.75;;;;;;;;;;5060146;28;41559;-74
2023/12/10 09:49:03;;;;;;;13.93;2.97;;;;;;;;;;5067448;28;42122;-73
2023/12/10 09:51:31;;;;;;;14.88;3.60;;;;;;;;;;5071631;28;41729;-75
2023/12/10 09:53:59;;;;;;;18.30;3.83;;;;;;;;;;5067881;28;42351;-74
2023/12/10 09:56:28;;;;;;;14.73;3.10;;;;;;;;;;5065658;28;41212;-79
2023/12/10 09:58:56;;;;;;;14.23;3.35;;;;;;;;;;5065151;28;41341;-82
2023/12/10 10:01:24;;;;;;;17.17;3.33;;;;;;;;;;5061162;28;41747;-80
2023/12/10 10:03:53;;;;;;;14.18;3.22;;;;;;;;;;5062759;28;39944;-78
2023/12/10 10:06:21;;;;;;;12.15;3.13;;;;;;;;;;5060942;28;42202;-76
2023/12/10 10:08:49;;;;;;;15.82;3.00;;;;;;;;;;5066923;28;42171;-77
2023/12/10 10:11:17;;;;;;;14.40;3.30;;;;;;;;;;5063922;28;40103;-79
2023/12/10 10:13:52;;;;;;;8.57;2.63;;;;;;;;;;5070583;28;41458;-77
2023/12/10 10:16:20;;;;;;;10.95;2.90;;;;;;;;;;5062030;28;40504;-78
2023/12/10 10:18:48;;;;;;;10.38;3.13;;;;;;;;;;5058807;28;41501;-77
2023/12/10 10:21:17;;;;;;;16.85;3.65;;;;;;;;;;5065977;28;41656;-76
2023/12/10 10:23:45;;;;;;;12.48;3.33;;;;;;;;;;5056010;28;40626;-77
2023/12/10 10:26:14;;;;;;;14.07;3.25;;;;;;;;;;5067025;28;41329;-73
2023/12/10 10:28:42;;;;;;;10.70;2.88;;;;;;;;;;5065588;28;42207;-73
2023/12/10 10:31:11;;;;;;;7.60;2.78;;;;;;;;;;5060056;28;41031;-81
2023/12/10 10:33:40;;;;;;;9.88;2.65;;;;;;;;;;5063062;28;41763;-77
2023/12/10 10:36:10;;;;;;;19.90;3.58;;;;;;;;;;5048466;28;41947;-74
2023/12/10 10:38:39;;;;;;;9.75;2.50;;;;;;;;;;5063116;28;41228;-76
2023/12/10 10:41:07;;;;;;;12.20;3.15;;;;;;;;;;5061875;28;42024;-75
2023/12/10 10:43:36;;;;;;;10.23;2.50;;;;;;;;;;5064726;28;40032;-75
2023/12/10 10:46:05;;;;;;;14.73;3.53;;;;;;;;;;5065041;28;41812;-77
2023/12/10 10:48:35;;;;;;;12.77;2.50;;;;;;;;;;5066594;28;42348;-79
2023/12/10 10:51:04;;;;;;;11.13;3.10;;;;;;;;;;5057967;28;41114;-78
2023/12/10 10:53:32;;;;;;;11.07;2.95;;;;;;;;;;5050664;28;40434;-77
2023/12/10 10:56:00;;;;;;;12.20;2.90;;;;;;;;;;5063587;28;41373;-78
2023/12/10 10:58:29;;;;;;;13.40;2.85;;;;;;;;;;5066148;28;40714;-78
2023/12/10 11:00:57;;;;;;;13.98;3.10;;;;;;;;;;5063898;28;42438;-78
2023/12/10 11:03:27;;;;;;;11.35;3.20;;;;;;;;;;5065252;28;41426;-80
2023/12/10 11:05:58;;;;;;;14.18;3.20;;;;;;;;;;5064450;28;20244;-77
2023/12/10 11:08:30;;;;;;;12.55;2.65;;;;;;;;;;5063854;28;42185;-78
2023/12/10 11:10:59;;;;;;;11.15;2.63;;;;;;;;;;5065410;28;40146;-79
2023/12/10 11:13:42;;;;;;;13.27;3.20;;;;;;;;;;5061836;28;41311;-75
2023/12/10 11:16:10;;;;;;;9.13;2.90;;;;;;;;;;5057650;28;41946;-74
2023/12/10 11:18:50;;;;;;;9.02;2.33;;;;;;;;;;5062366;28;41382;-74
2023/12/10 11:21:19;;;;;;;9.18;2.63;;;;;;;;;;5057682;28;42152;-74
2023/12/10 11:23:47;;;;;;;10.50;2.60;;;;;;;;;;5062715;28;41376;-74
2023/12/10 11:26:15;;;;;;;7.13;2.05;;;;;;;;;;5061688;28;41834;-74
2023/12/10 11:28:43;;;;;;;7.80;2.22;;;;;;;;;;5062902;28;41949;-73
2023/12/10 11:31:11;;;;;;;8.57;1.67;;;;;;;;;;5061548;28;40504;-73
2023/12/10 11:33:40;;;;;;;8.27;2.33;;;;;;;;;;5058739;28;42621;-74
2023/12/10 11:36:09;;;;;;;9.07;2.47;;;;;;;;;;5061911;28;43180;-73
2023/12/10 11:38:59;;;;;;;9.98;2.45;;;;;;;;;;5058220;28;40849;-73
2023/12/10 11:41:29;;;;;;;8.65;2.33;;;;;;;;;;5056800;28;41435;-73
2023/12/10 11:43:57;;;;;;;6.15;2.15;;;;;;;;;;5064997;28;33887;-74
2023/12/10 11:46:25;;;;;;;5.72;2.22;;;;;;;;;;5060155;28;41743;-74
2023/12/10 11:49:05;;;;;;;7.18;2.45;;;;;;;;;;5059008;28;42115;-73
2023/12/10 11:51:38;;;;;;;10.90;2.40;;;;;;;;;;5061440;28;40961;-75
2023/12/10 11:54:07;;;;;;;7.65;2.10;;;;;;;;;;5065095;28;41639;-73
2023/12/10 11:56:35;;;;;;;11.35;3.15;;;;;;;;;;5055623;28;41415;-74
2023/12/10 11:59:04;;;;;;;8.65;2.45;;;;;;;;;;5065007;28;40035;-73
2023/12/10 12:01:35;;;;;;;5.38;1.95;;;;;;;;;;5058643;28;41439;-74
2023/12/10 12:04:03;;;;;;;11.00;2.80;;;;;;;;;;5062481;28;42068;-72
2023/12/10 12:06:38;;;;;;;11.02;2.78;;;;;;;;;;5054070;28;41586;-73
2023/12/10 12:09:08;;;;;;;8.45;2.33;;;;;;;;;;5058241;28;42213;-73
2023/12/10 12:11:36;;;;;;;11.20;2.33;;;;;;;;;;5062770;28;41615;-74
2023/12/10 12:14:04;;;;;;;8.60;2.10;;;;;;;;;;5062801;28;41555;-75
2023/12/10 12:16:32;;;;;;;12.32;2.75;;;;;;;;;;5063334;28;41655;-75
2023/12/10 12:19:00;;;;;;;14.48;2.85;;;;;;;;;;5060510;28;41805;-73
2023/12/10 12:21:28;;;;;;;7.93;2.22;;;;;;;;;;5060471;28;41794;-72
2023/12/10 12:23:56;;;;;;;8.32;2.50;;;;;;;;;;5060730;28;41905;-72
2023/12/10 12:26:26;;;;;;;10.18;2.78;;;;;;;;;;5062707;28;40115;-73
2023/12/10 12:28:54;;;;;;;8.88;2.63;;;;;;;;;;5061868;28;42815;-75
2023/12/10 12:31:22;;;;;;;12.63;3.20;;;;;;;;;;5060797;28;41421;-74
2023/12/10 12:33:50;;;;;;;13.57;2.17;;;;;;;;;;5064507;28;41643;-75
2023/12/10 12:36:18;;;;;;;9.45;2.88;;;;;;;;;;5061841;28;42452;-74
2023/12/10 12:38:46;;;;;;;10.77;3.33;;;;;;;;;;5062485;28;40607;-73
2023/12/10 12:41:14;;;;;;;8.68;2.42;;;;;;;;;;5063420;28;41835;-75
2023/12/10 12:43:44;;;;;;;13.73;3.10;;;;;;;;;;5062507;28;43776;-74
2023/12/10 12:46:14;;;;;;;9.60;2.15;;;;;;;;;;5062056;28;41408;-75
2023/12/10 12:48:42;;;;;;;11.98;2.92;;;;;;;;;;5063639;28;41614;-75
2023/12/10 12:51:10;;;;;;;15.13;3.03;;;;;;;;;;5061447;28;40767;-75
2023/12/10 12:53:38;;;;;;;12.48;2.78;;;;;;;;;;5062043;28;41856;-75
2023/12/10 12:56:26;;;;;;;11.77;2.90;;;;;;;;;;5061529;28;41819;-75
2023/12/10 12:58:55;;;;;;;14.35;3.22;;;;;;;;;;5060164;28;40457;-75
2023/12/10 13:01:23;;;;;;;9.15;2.75;;;;;;;;;;5063216;28;41175;-75
2023/12/10 13:03:53;;;;;;;7.13;2.50;;;;;;;;;;5056444;28;41107;-75
2023/12/10 13:06:21;;;;;;;9.80;2.70;;;;;;;;;;5051350;28;40997;-75
2023/12/10 13:08:49;;;;;;;11.88;3.00;;;;;;;;;;5061226;28;41202;-75
2023/12/10 13:11:17;;;;;;;9.82;3.28;;;;;;;;;;5061298;28;41760;-74
2023/12/10 13:13:45;;;;;;;12.68;2.97;;;;;;;;;;5044274;28;40112;-75
2023/12/10 13:16:15;;;;;;;13.55;3.17;;;;;;;;;;5061394;28;41850;-75
2023/12/10 13:18:44;;;;;;;8.77;2.28;;;;;;;;;;5066715;28;40336;-75
2023/12/10 13:21:12;;;;;;;9.98;2.38;;;;;;;;;;5048012;28;40342;-75
2023/12/10 13:23:40;;;;;;;8.07;2.15;;;;;;;;;;5065848;28;41902;-74
2023/12/10 13:26:08;;;;;;;13.63;2.70;;;;;;;;;;5064094;28;40564;-74
2023/12/10 13:28:36;;;;;;;10.32;3.05;;;;;;;;;;5064832;28;41728;-73
2023/12/10 13:31:04;;;;;;;14.20;2.83;;;;;;;;;;5056566;28;41713;-74
2023/12/10 13:33:34;;;;;;;11.77;2.92;;;;;;;;;;5043606;28;41431;-74
2023/12/10 13:36:02;;;;;;;6.78;2.58;;;;;;;;;;5059145;28;42318;-74
2023/12/10 13:38:31;;;;;;;9.13;2.15;;;;;;;;;;5062984;28;40884;-73
2023/12/10 13:40:59;;;;;;;9.10;2.30;;;;;;;;;;5059916;28;41625;-74
2023/12/10 13:43:29;;;;;;;10.15;2.38;;;;;;;;;;5063411;28;42038;-74
2023/12/10 13:45:57;;;;;;;11.32;2.10;;;;;;;;;;5063634;28;40081;-72
2023/12/10 13:48:25;;;;;;;11.85;2.47;;;;;;;;;;5057995;28;41313;-73
2023/12/10 13:50:55;;;;;;;9.32;2.08;;;;;;;;;;5062426;28;42148;-73
2023/12/10 13:53:23;;;;;;;8.85;2.75;;;;;;;;;;5065785;28;40471;-74
2023/12/10 13:55:51;;;;;;;12.48;2.72;;;;;;;;;;5062638;28;42059;-73
2023/12/10 13:58:19;;;;;;;9.63;2.63;;;;;;;;;;5061300;28;41116;-74
2023/12/10 14:00:47;;;;;;;6.53;2.00;;;;;;;;;;5063456;28;41310;-73
2023/12/10 14:03:15;;;;;;;10.75;2.58;;;;;;;;;;5058106;28;42001;-73
2023/12/10 14:05:43;;;;;;;8.55;2.15;;;;;;;;;;5060370;28;40393;-73
2023/12/10 14:08:13;;;;;;;7.38;2.13;;;;;;;;;;5059574;28;41232;-73
2023/12/10 14:10:41;;;;;;;7.38;2.35;;;;;;;;;;5064056;28;41764;-73
2023/12/10 14:13:09;;;;;;;8.23;2.30;;;;;;;;;;5065550;28;41058;-74
2023/12/10 14:15:37;;;;;;;8.55;1.88;;;;;;;;;;5063317;28;42654;-73
2023/12/10 14:18:05;;;;;;;7.72;2.05;;;;;;;;;;5062981;28;40036;-73
2023/12/10 14:20:33;;;;;;;7.22;2.60;;;;;;;;;;5061173;28;42079;-73
2023/12/10 14:23:01;;;;;;;7.05;2.03;;;;;;;;;;5064632;28;42935;-74
2023/12/10 14:25:31;;;;;;;8.68;2.95;;;;;;;;;;5067124;28;39873;-73
2023/12/10 14:27:59;;;;;;;6.65;2.40;;;;;;;;;;5063357;28;40609;-73
2023/12/10 14:30:28;;;;;;;8.23;2.85;;;;;;;;;;5058736;28;42838;-74
2023/12/10 14:32:56;;;;;;;8.68;2.08;;;;;;;;;;5062520;28;41130;-74
2023/12/10 14:35:24;;;;;;;8.10;2.40;;;;;;;;;;5062991;28;42565;-74
2023/12/10 14:37:52;;;;;;;4.43;1.80;;;;;;;;;;5065214;28;41399;-73
2023/12/10 14:40:20;;;;;;;6.05;1.70;;;;;;;;;;5066227;28;41597;-75
2023/12/10 14:42:50;;;;;;;7.32;1.92;;;;;;;;;;5063386;28;42028;-74